Time;durP1;ratioP1;P1;durP2;ratioP2;P2;SDS_P1;SDS_P2;PMS_P1;PMS_P2;Temp;Humidity;BMP_temperature;BMP_pressure;BME280_temperature;BME280_humidity;BME280_pressure;Samples;Min_cycle;Max_cycle;Signal;HPM_P1;HPM_P2
2023/04/29 00:00:18;;;;;;;58.00;2.80;;;;;;;;;;5074925;28;20467;-70
2023/04/29 00:02:45;;;;;;;57.27;2.47;;;;;;;;;;5074826;28;20508;-70
2023/04/29 00:05:14;;;;;;;57.47;2.87;;;;;;;;;;5074726;28;20446;-70
2023/04/29 00:07:41;;;;;;;57.60;2.80;;;;;;;;;;5074549;28;20447;-70
2023/04/29 00:10:09;;;;;;;57.33;2.43;;;;;;;;;;5074364;28;20493;-70
2023/04/29 00:12:36;;;;;;;57.40;2.30;;;;;;;;;;5074781;28;20822;-70
2023/04/29 00:15:05;;;;;;;57.23;2.40;;;;;;;;;;5074835;28;20498;-71
2023/04/29 00:17:32;;;;;;;57.57;3.00;;;;;;;;;;5074467;28;20451;-70
2023/04/29 00:19:59;;;;;;;57.30;2.40;;;;;;;;;;5073988;28;20464;-70
2023/04/29 00:22:28;;;;;;;58.00;2.50;;;;;;;;;;5074666;28;20451;-71
2023/04/29 00:24:55;;;;;;;57.50;2.70;;;;;;;;;;5074384;28;20858;-67
2023/04/29 00:27:22;;;;;;;58.57;2.80;;;;;;;;;;5074569;28;20443;-68
2023/04/29 00:29:49;;;;;;;57.70;2.80;;;;;;;;;;5074009;28;20483;-68
2023/04/29 00:32:16;;;;;;;58.20;3.13;;;;;;;;;;5074233;28;20458;-68
2023/04/29 00:34:43;;;;;;;57.43;2.47;;;;;;;;;;5074279;28;20447;-70
2023/04/29 00:37:11;;;;;;;57.13;2.27;;;;;;;;;;5074051;28;20939;-69
2023/04/29 00:39:39;;;;;;;57.43;2.40;;;;;;;;;;5073866;28;20474;-68
2023/04/29 00:42:06;;;;;;;57.33;2.23;;;;;;;;;;5074166;28;20458;-69
2023/04/29 00:44:33;;;;;;;57.27;2.30;;;;;;;;;;5073019;28;20455;-67
2023/04/29 00:47:01;;;;;;;56.97;2.40;;;;;;;;;;5073859;28;20546;-68
2023/04/29 00:49:28;;;;;;;57.53;2.60;;;;;;;;;;5073482;28;20471;-68
2023/04/29 00:51:56;;;;;;;57.43;2.47;;;;;;;;;;5073926;28;20491;-68
2023/04/29 00:54:24;;;;;;;57.37;2.40;;;;;;;;;;5073777;28;20947;-67
2023/04/29 00:56:53;;;;;;;57.50;2.60;;;;;;;;;;5073796;28;20455;-69
2023/04/29 00:59:21;;;;;;;57.03;2.50;;;;;;;;;;5073596;28;20477;-69
2023/04/29 01:01:48;;;;;;;57.37;2.37;;;;;;;;;;5073496;28;20451;-69
2023/04/29 01:04:16;;;;;;;58.00;2.90;;;;;;;;;;5073838;28;20455;-69
2023/04/29 01:06:49;;;;;;;57.07;2.20;;;;;;;;;;5073649;28;20451;-70
2023/04/29 01:09:27;;;;;;;56.97;2.20;;;;;;;;;;5073259;28;20478;-68
2023/04/29 01:12:07;;;;;;;57.07;2.33;;;;;;;;;;5073430;28;20488;-69
2023/04/29 01:14:34;;;;;;;57.57;2.40;;;;;;;;;;5072262;28;20487;-69
2023/04/29 01:17:04;;;;;;;57.13;2.40;;;;;;;;;;5073356;28;20954;-69
2023/04/29 01:19:44;;;;;;;57.60;2.90;;;;;;;;;;5073192;28;20467;-69
2023/04/29 01:22:11;;;;;;;58.50;4.13;;;;;;;;;;5073227;28;20447;-69
2023/04/29 01:24:40;;;;;;;57.20;2.20;;;;;;;;;;5073051;28;20459;-68
2023/04/29 01:27:11;;;;;;;57.17;2.57;;;;;;;;;;5073284;28;20466;-69
2023/04/29 01:29:41;;;;;;;57.47;2.37;;;;;;;;;;5072746;28;20570;-69
2023/04/29 01:32:13;;;;;;;57.27;2.30;;;;;;;;;;5073133;28;20455;-68
2023/04/29 01:34:42;;;;;;;57.57;2.27;;;;;;;;;;5073251;28;20450;-69
2023/04/29 01:37:13;;;;;;;57.47;2.60;;;;;;;;;;5073154;28;20455;-68
2023/04/29 01:39:47;;;;;;;56.97;2.10;;;;;;;;;;5072609;28;20502;-68
2023/04/29 01:42:17;;;;;;;57.30;2.50;;;;;;;;;;5072992;28;20447;-68
2023/04/29 01:44:44;;;;;;;57.37;2.67;;;;;;;;;;5072720;28;20478;-68
2023/04/29 01:47:14;;;;;;;57.20;2.80;;;;;;;;;;5072934;28;20448;-68
2023/04/29 01:49:41;;;;;;;57.30;2.30;;;;;;;;;;5072268;28;20979;-69
2023/04/29 01:52:08;;;;;;;57.07;2.27;;;;;;;;;;5072864;28;20482;-69
2023/04/29 01:54:36;;;;;;;57.30;2.30;;;;;;;;;;5072493;28;20459;-68
2023/04/29 01:57:04;;;;;;;58.03;2.70;;;;;;;;;;5072685;28;20443;-68
2023/04/29 01:59:31;;;;;;;57.27;2.40;;;;;;;;;;5072034;28;20470;-68
2023/04/29 02:01:58;;;;;;;57.40;2.50;;;;;;;;;;5072239;28;20948;-69
2023/04/29 02:04:27;;;;;;;57.53;3.23;;;;;;;;;;5072792;28;20454;-68
2023/04/29 02:06:54;;;;;;;57.50;2.30;;;;;;;;;;5072625;28;20443;-68
2023/04/29 02:09:21;;;;;;;57.20;2.20;;;;;;;;;;5071826;28;20999;-68
2023/04/29 02:11:48;;;;;;;57.27;2.30;;;;;;;;;;5072195;28;20475;-69
2023/04/29 02:14:17;;;;;;;57.27;2.20;;;;;;;;;;5072562;28;21083;-68
2023/04/29 02:16:45;;;;;;;57.57;2.37;;;;;;;;;;5072214;28;20937;-69
2023/04/29 02:19:12;;;;;;;57.17;2.37;;;;;;;;;;5072058;28;20817;-68
2023/04/29 02:21:39;;;;;;;57.47;2.10;;;;;;;;;;5072183;28;20458;-68
2023/04/29 02:24:07;;;;;;;57.37;2.40;;;;;;;;;;5072142;28;20470;-69
2023/04/29 02:26:34;;;;;;;57.40;2.47;;;;;;;;;;5071923;28;20451;-68
2023/04/29 02:29:02;;;;;;;57.07;2.13;;;;;;;;;;5071825;28;20454;-69
2023/04/29 02:31:31;;;;;;;57.50;2.30;;;;;;;;;;5072000;28;20486;-68
2023/04/29 02:33:59;;;;;;;57.77;2.73;;;;;;;;;;5072093;28;20459;-68
2023/04/29 02:36:26;;;;;;;57.70;2.50;;;;;;;;;;5072220;28;20466;-68
2023/04/29 02:38:55;;;;;;;57.03;2.87;;;;;;;;;;5071303;28;20447;-68
2023/04/29 02:41:22;;;;;;;57.47;2.30;;;;;;;;;;5071867;28;20454;-68
2023/04/29 02:43:49;;;;;;;60.67;5.33;;;;;;;;;;5072022;28;20454;-68
2023/04/29 02:46:17;;;;;;;57.37;2.80;;;;;;;;;;5071971;28;20453;-67
2023/04/29 02:48:46;;;;;;;57.40;2.20;;;;;;;;;;5071433;28;21109;-69
2023/04/29 02:51:13;;;;;;;57.07;2.30;;;;;;;;;;5071719;28;21021;-68
2023/04/29 02:53:40;;;;;;;57.37;2.43;;;;;;;;;;5071727;28;20481;-69
2023/04/29 02:56:07;;;;;;;57.57;2.40;;;;;;;;;;5071795;28;20457;-69
2023/04/29 02:58:34;;;;;;;57.30;2.40;;;;;;;;;;5071147;28;20971;-68
2023/04/29 03:01:02;;;;;;;57.17;2.27;;;;;;;;;;5071684;28;20497;-68
2023/04/29 03:03:29;;;;;;;57.40;2.30;;;;;;;;;;5071770;28;20526;-68
2023/04/29 03:05:58;;;;;;;57.33;2.33;;;;;;;;;;5071652;28;20505;-68
2023/04/29 03:08:25;;;;;;;57.70;2.70;;;;;;;;;;5075398;28;20462;-68
2023/04/29 03:10:52;;;;;;;57.37;2.40;;;;;;;;;;5075536;28;20987;-68
2023/04/29 03:13:20;;;;;;;57.37;2.33;;;;;;;;;;5075945;28;20458;-68
2023/04/29 03:15:47;;;;;;;57.33;2.17;;;;;;;;;;5075422;28;20450;-68
2023/04/29 03:18:14;;;;;;;57.57;2.40;;;;;;;;;;5075618;28;20446;-68
2023/04/29 03:20:41;;;;;;;57.63;2.27;;;;;;;;;;5075220;28;20812;-69
2023/04/29 03:23:09;;;;;;;57.37;2.30;;;;;;;;;;5075614;28;20454;-68
2023/04/29 03:25:36;;;;;;;57.07;2.13;;;;;;;;;;5075537;28;20445;-69
2023/04/29 03:28:04;;;;;;;57.33;2.27;;;;;;;;;;5075449;28;20466;-68
2023/04/29 03:30:31;;;;;;;57.27;2.37;;;;;;;;;;5075078;28;20463;-68
2023/04/29 03:32:58;;;;;;;57.37;2.30;;;;;;;;;;5075223;28;20935;-68
2023/04/29 03:35:25;;;;;;;57.47;2.30;;;;;;;;;;5075264;28;20446;-68
2023/04/29 03:37:52;;;;;;;57.60;2.63;;;;;;;;;;5075261;28;20948;-68
2023/04/29 03:40:20;;;;;;;56.97;2.37;;;;;;;;;;5074867;28;20467;-68
2023/04/29 03:42:48;;;;;;;57.50;2.27;;;;;;;;;;5075193;28;20820;-69
2023/04/29 03:45:15;;;;;;;57.07;2.53;;;;;;;;;;5075194;28;20447;-68
2023/04/29 03:47:42;;;;;;;57.17;2.60;;;;;;;;;;5074990;28;20457;-71
2023/04/29 03:50:10;;;;;;;57.23;2.50;;;;;;;;;;5074820;28;20467;-68
2023/04/29 03:52:38;;;;;;;56.97;2.23;;;;;;;;;;5075059;28;20487;-68
2023/04/29 03:55:06;;;;;;;57.47;2.20;;;;;;;;;;5075090;28;20447;-69
2023/04/29 03:57:34;;;;;;;57.80;2.60;;;;;;;;;;5074786;28;20517;-68
2023/04/29 04:00:01;;;;;;;57.60;2.40;;;;;;;;;;5074412;28;20471;-68
2023/04/29 04:02:28;;;;;;;57.47;2.30;;;;;;;;;;5074633;28;20448;-68
2023/04/29 04:04:55;;;;;;;57.47;2.43;;;;;;;;;;5074959;28;20451;-68
2023/04/29 04:07:22;;;;;;;57.50;2.30;;;;;;;;;;5074697;28;20450;-68
2023/04/29 04:09:50;;;;;;;57.60;2.63;;;;;;;;;;5074384;28;20471;-68
2023/04/29 04:12:17;;;;;;;57.40;2.30;;;;;;;;;;5074632;28;20485;-67
2023/04/29 04:14:45;;;;;;;57.60;2.90;;;;;;;;;;5074510;28;20826;-71
2023/04/29 04:17:12;;;;;;;57.40;2.50;;;;;;;;;;5074666;28;20444;-68
2023/04/29 04:19:39;;;;;;;57.57;2.43;;;;;;;;;;5074292;28;20462;-68
2023/04/29 04:22:07;;;;;;;57.37;2.30;;;;;;;;;;5074547;28;20439;-68
2023/04/29 04:24:34;;;;;;;57.37;2.23;;;;;;;;;;5074519;28;20521;-68
2023/04/29 04:27:01;;;;;;;57.47;2.33;;;;;;;;;;5074545;28;20443;-67
2023/04/29 04:29:28;;;;;;;57.47;2.50;;;;;;;;;;5073795;28;20475;-69
2023/04/29 04:31:56;;;;;;;56.87;2.37;;;;;;;;;;5074196;28;20514;-68
2023/04/29 04:34:25;;;;;;;57.00;2.40;;;;;;;;;;5074201;28;20459;-68
2023/04/29 04:36:52;;;;;;;57.17;2.27;;;;;;;;;;5074666;28;20455;-68
2023/04/29 04:39:19;;;;;;;57.27;2.30;;;;;;;;;;5073674;28;20477;-69
2023/04/29 04:41:46;;;;;;;57.17;2.40;;;;;;;;;;5074072;28;20451;-68
2023/04/29 04:44:13;;;;;;;57.33;2.63;;;;;;;;;;5074249;28;20454;-68
2023/04/29 04:46:41;;;;;;;57.37;2.33;;;;;;;;;;5073991;28;21065;-68
2023/04/29 04:49:09;;;;;;;56.90;2.30;;;;;;;;;;5073739;28;20471;-69
2023/04/29 04:51:36;;;;;;;57.27;2.53;;;;;;;;;;5073953;28;20475;-68
2023/04/29 04:54:04;;;;;;;57.47;2.20;;;;;;;;;;5074188;28;20746;-69
2023/04/29 04:56:31;;;;;;;57.37;2.37;;;;;;;;;;5073604;28;20456;-68
2023/04/29 04:58:58;;;;;;;57.37;2.53;;;;;;;;;;5073622;28;20448;-69
2023/04/29 05:01:25;;;;;;;57.33;2.37;;;;;;;;;;5073681;28;20454;-68
2023/04/29 05:03:52;;;;;;;57.43;2.33;;;;;;;;;;5073833;28;20845;-69
2023/04/29 05:06:20;;;;;;;57.37;2.30;;;;;;;;;;5073751;28;20443;-69
2023/04/29 05:08:47;;;;;;;57.33;2.33;;;;;;;;;;5073141;28;20451;-69
2023/04/29 05:11:18;;;;;;;57.50;2.37;;;;;;;;;;5073584;28;20491;-69
2023/04/29 05:13:45;;;;;;;57.40;2.20;;;;;;;;;;5073659;28;20808;-68
2023/04/29 05:16:12;;;;;;;58.10;2.60;;;;;;;;;;5073550;28;20443;-69
2023/04/29 05:18:39;;;;;;;57.20;2.30;;;;;;;;;;5073000;28;20450;-69
2023/04/29 05:21:06;;;;;;;57.17;2.33;;;;;;;;;;5073220;28;20472;-68
2023/04/29 05:23:35;;;;;;;57.23;2.30;;;;;;;;;;5073038;28;20940;-68
2023/04/29 05:26:02;;;;;;;56.67;2.20;;;;;;;;;;5073420;28;20454;-69
2023/04/29 05:28:29;;;;;;;57.37;2.43;;;;;;;;;;5073024;28;20974;-68
2023/04/29 05:30:56;;;;;;;57.03;2.40;;;;;;;;;;5072835;28;20464;-68
2023/04/29 05:33:23;;;;;;;57.07;2.20;;;;;;;;;;5073062;28;20490;-68
2023/04/29 05:35:50;;;;;;;57.27;2.17;;;;;;;;;;5073159;28;20451;-68
2023/04/29 05:38:17;;;;;;;57.20;2.20;;;;;;;;;;5072847;28;20832;-69
2023/04/29 05:40:48;;;;;;;57.33;2.50;;;;;;;;;;5072871;28;20482;-69
2023/04/29 05:43:15;;;;;;;57.30;2.20;;;;;;;;;;5073235;28;20446;-68
2023/04/29 05:45:43;;;;;;;57.20;2.20;;;;;;;;;;5073046;28;20454;-68
2023/04/29 05:48:10;;;;;;;57.27;2.30;;;;;;;;;;5072711;28;20948;-68
2023/04/29 05:50:37;;;;;;;57.20;2.33;;;;;;;;;;5072335;28;20566;-69
2023/04/29 05:53:04;;;;;;;57.30;2.37;;;;;;;;;;5072592;28;20479;-68
2023/04/29 05:55:31;;;;;;;57.37;2.47;;;;;;;;;;5072772;28;20443;-68
2023/04/29 05:58:00;;;;;;;57.17;2.10;;;;;;;;;;5072462;28;20452;-68
2023/04/29 06:00:27;;;;;;;57.40;2.90;;;;;;;;;;5072228;28;20472;-69
2023/04/29 06:02:54;;;;;;;57.17;2.33;;;;;;;;;;5072477;28;20444;-68
2023/04/29 06:05:21;;;;;;;57.17;2.20;;;;;;;;;;5072380;28;20447;-69
2023/04/29 06:07:48;;;;;;;57.23;2.23;;;;;;;;;;5072516;28;20448;-68
2023/04/29 06:10:15;;;;;;;57.30;2.10;;;;;;;;;;5072205;28;20472;-69
2023/04/29 06:12:43;;;;;;;57.17;2.00;;;;;;;;;;5072794;28;20483;-69
2023/04/29 06:15:12;;;;;;;57.40;2.90;;;;;;;;;;5072426;28;20611;-69
2023/04/29 06:17:39;;;;;;;57.30;2.30;;;;;;;;;;5072169;28;20455;-69
2023/04/29 06:20:06;;;;;;;57.37;2.50;;;;;;;;;;5072157;28;21122;-69
2023/04/29 06:22:34;;;;;;;57.30;2.50;;;;;;;;;;5072616;28;20848;-70
2023/04/29 06:25:01;;;;;;;57.57;2.77;;;;;;;;;;5072249;28;20459;-69
2023/04/29 06:27:28;;;;;;;57.30;2.70;;;;;;;;;;5072194;28;20461;-69
2023/04/29 06:29:55;;;;;;;57.40;2.50;;;;;;;;;;5071502;28;20536;-69
2023/04/29 06:32:23;;;;;;;58.23;3.37;;;;;;;;;;5071904;28;20483;-69
2023/04/29 06:34:51;;;;;;;57.13;2.03;;;;;;;;;;5072204;28;20447;-70
2023/04/29 06:37:18;;;;;;;57.03;2.20;;;;;;;;;;5072228;28;20451;-69
2023/04/29 06:39:45;;;;;;;57.30;2.43;;;;;;;;;;5071534;28;20467;-72
2023/04/29 06:42:12;;;;;;;57.47;2.67;;;;;;;;;;5071224;28;20439;-72
2023/04/29 06:44:39;;;;;;;57.40;2.83;;;;;;;;;;5071910;28;20448;-72
2023/04/29 06:47:06;;;;;;;57.20;2.70;;;;;;;;;;5072089;28;20516;-72
2023/04/29 06:49:35;;;;;;;57.20;2.33;;;;;;;;;;5071679;28;20471;-72
2023/04/29 06:52:02;;;;;;;57.27;2.30;;;;;;;;;;5071846;28;21010;-70
2023/04/29 06:54:29;;;;;;;57.37;2.40;;;;;;;;;;5071924;28;20445;-69
2023/04/29 06:56:57;;;;;;;57.17;2.40;;;;;;;;;;5071864;28;20504;-69
2023/04/29 06:59:24;;;;;;;56.90;2.20;;;;;;;;;;5071328;28;20540;-70
2023/04/29 07:01:51;;;;;;;57.10;2.50;;;;;;;;;;5072030;28;20455;-70
2023/04/29 07:04:18;;;;;;;57.37;2.57;;;;;;;;;;5071993;28;20455;-70
2023/04/29 07:06:47;;;;;;;57.07;2.20;;;;;;;;;;5071618;28;20443;-69
2023/04/29 07:09:14;;;;;;;57.10;2.30;;;;;;;;;;5071401;28;20553;-69
2023/04/29 07:11:41;;;;;;;57.17;2.40;;;;;;;;;;5071666;28;20502;-70
2023/04/29 07:14:09;;;;;;;56.93;2.33;;;;;;;;;;5071811;28;20939;-70
2023/04/29 07:16:36;;;;;;;57.07;2.37;;;;;;;;;;5071871;28;20444;-70
2023/04/29 07:19:03;;;;;;;57.03;2.30;;;;;;;;;;5071311;28;20467;-70
2023/04/29 07:21:31;;;;;;;56.77;2.40;;;;;;;;;;5071632;28;20447;-70
2023/04/29 07:24:01;;;;;;;57.07;2.30;;;;;;;;;;5071450;28;20462;-69
2023/04/29 07:26:28;;;;;;;57.20;2.70;;;;;;;;;;5071906;28;20457;-70
2023/04/29 07:28:55;;;;;;;57.33;2.93;;;;;;;;;;5071162;28;20443;-70
2023/04/29 07:31:22;;;;;;;57.10;2.67;;;;;;;;;;5071667;28;20451;-70
2023/04/29 07:33:49;;;;;;;57.03;2.57;;;;;;;;;;5071471;28;20494;-70
2023/04/29 07:36:16;;;;;;;57.10;2.10;;;;;;;;;;5071445;28;20456;-70
2023/04/29 07:38:44;;;;;;;56.87;2.30;;;;;;;;;;5070995;28;20449;-70
2023/04/29 07:41:12;;;;;;;57.00;2.20;;;;;;;;;;5071345;28;20940;-71
2023/04/29 07:43:39;;;;;;;56.97;2.30;;;;;;;;;;5071248;28;20438;-71
2023/04/29 07:46:06;;;;;;;57.20;2.30;;;;;;;;;;5071109;28;20448;-70
2023/04/29 07:48:38;;;;;;;56.90;2.00;;;;;;;;;;5070096;28;20834;-70
2023/04/29 07:51:05;;;;;;;57.97;3.23;;;;;;;;;;5071285;28;20471;-70
2023/04/29 07:53:32;;;;;;;56.87;2.10;;;;;;;;;;5073202;28;20498;-71
2023/04/29 07:55:59;;;;;;;56.83;2.10;;;;;;;;;;5074939;28;20546;-71
2023/04/29 07:58:28;;;;;;;57.07;2.23;;;;;;;;;;5075031;28;20541;-71
2023/04/29 08:00:56;;;;;;;57.20;2.80;;;;;;;;;;5074969;28;20467;-71
2023/04/29 08:03:23;;;;;;;56.90;2.10;;;;;;;;;;5074932;28;20489;-70
2023/04/29 08:05:52;;;;;;;57.10;2.50;;;;;;;;;;5074928;28;20443;-71
2023/04/29 08:08:19;;;;;;;56.67;2.20;;;;;;;;;;5074884;28;20447;-70
2023/04/29 08:10:46;;;;;;;56.87;2.10;;;;;;;;;;5074665;28;20469;-71
2023/04/29 08:13:14;;;;;;;56.90;2.10;;;;;;;;;;5074690;28;20483;-70
2023/04/29 08:15:42;;;;;;;56.87;1.90;;;;;;;;;;5074627;28;20457;-71
2023/04/29 08:18:09;;;;;;;56.93;2.00;;;;;;;;;;5074664;28;20451;-70
2023/04/29 08:20:36;;;;;;;57.33;2.40;;;;;;;;;;5074112;28;20467;-71
2023/04/29 08:23:03;;;;;;;56.80;2.20;;;;;;;;;;5074547;28;20927;-70
2023/04/29 08:25:30;;;;;;;56.90;2.00;;;;;;;;;;5074404;28;20461;-70
2023/04/29 08:27:58;;;;;;;56.90;1.90;;;;;;;;;;5074326;28;20451;-70
2023/04/29 08:30:25;;;;;;;56.77;2.00;;;;;;;;;;5074101;28;20466;-71
2023/04/29 08:32:53;;;;;;;56.80;2.03;;;;;;;;;;5074466;28;20826;-71
2023/04/29 08:35:20;;;;;;;56.87;2.30;;;;;;;;;;5074182;28;20454;-71
2023/04/29 08:37:48;;;;;;;56.87;2.00;;;;;;;;;;5074152;28;20444;-70
2023/04/29 08:40:15;;;;;;;56.80;2.17;;;;;;;;;;5073707;28;20475;-71
2023/04/29 08:42:43;;;;;;;56.87;2.00;;;;;;;;;;5074289;28;20439;-70
2023/04/29 08:45:10;;;;;;;56.87;2.10;;;;;;;;;;5074183;28;20462;-71
2023/04/29 08:47:38;;;;;;;56.90;2.10;;;;;;;;;;5074146;28;20447;-69
2023/04/29 08:50:07;;;;;;;57.70;2.40;;;;;;;;;;5073413;28;21010;-69
2023/04/29 08:52:34;;;;;;;56.80;1.90;;;;;;;;;;5073941;28;20475;-68
2023/04/29 08:55:02;;;;;;;57.40;2.30;;;;;;;;;;5073990;28;20439;-69
2023/04/29 08:57:31;;;;;;;57.20;2.40;;;;;;;;;;5074005;28;20958;-71
2023/04/29 08:59:59;;;;;;;57.77;3.03;;;;;;;;;;5073362;28;20562;-69
2023/04/29 09:02:27;;;;;;;56.67;2.10;;;;;;;;;;5073438;28;20452;-68
2023/04/29 09:04:56;;;;;;;57.50;2.50;;;;;;;;;;5072948;28;20822;-68
2023/04/29 09:07:25;;;;;;;56.90;1.90;;;;;;;;;;5073627;28;20454;-69
2023/04/29 09:09:53;;;;;;;57.87;2.50;;;;;;;;;;5073203;28;20465;-69
2023/04/29 09:12:20;;;;;;;57.40;2.20;;;;;;;;;;5073490;28;20447;-68
2023/04/29 09:14:48;;;;;;;56.77;1.93;;;;;;;;;;5073261;28;21042;-69
2023/04/29 09:17:17;;;;;;;57.00;2.23;;;;;;;;;;5073448;28;20447;-68
2023/04/29 09:19:44;;;;;;;56.67;2.03;;;;;;;;;;5072984;28;20463;-71
2023/04/29 09:22:11;;;;;;;57.00;2.10;;;;;;;;;;5073212;28;20551;-71
2023/04/29 09:24:42;;;;;;;57.10;2.20;;;;;;;;;;5073032;28;20459;-71
2023/04/29 09:27:10;;;;;;;56.87;2.00;;;;;;;;;;5073518;28;20463;-70
2023/04/29 09:29:38;;;;;;;57.60;2.23;;;;;;;;;;5072760;28;20475;-69
2023/04/29 09:32:20;;;;;;;57.03;2.10;;;;;;;;;;5073242;28;20455;-71
2023/04/29 09:34:47;;;;;;;57.00;2.00;;;;;;;;;;5073280;28;20443;-71
2023/04/29 09:37:24;;;;;;;57.00;2.20;;;;;;;;;;5073152;28;20447;-71
2023/04/29 09:39:52;;;;;;;56.87;2.00;;;;;;;;;;5072505;28;20488;-71
2023/04/29 09:42:19;;;;;;;56.97;2.13;;;;;;;;;;5073115;28;20450;-69
2023/04/29 09:44:46;;;;;;;57.00;2.40;;;;;;;;;;5073013;28;20815;-69
2023/04/29 09:47:13;;;;;;;56.57;2.00;;;;;;;;;;5072717;28;20966;-70
2023/04/29 09:49:41;;;;;;;56.97;2.00;;;;;;;;;;5072227;28;21041;-68
2023/04/29 09:52:09;;;;;;;57.07;2.20;;;;;;;;;;5072513;28;20439;-68
2023/04/29 09:54:37;;;;;;;56.77;1.83;;;;;;;;;;5072475;28;20523;-68
2023/04/29 09:57:06;;;;;;;57.20;2.67;;;;;;;;;;5072408;28;20455;-68
2023/04/29 09:59:34;;;;;;;57.00;1.90;;;;;;;;;;5072171;28;20469;-68
2023/04/29 10:02:03;;;;;;;56.57;2.07;;;;;;;;;;5072498;28;20483;-68
2023/04/29 10:04:33;;;;;;;58.43;2.90;;;;;;;;;;5072380;28;20479;-69
2023/04/29 10:07:00;;;;;;;57.03;2.10;;;;;;;;;;5072571;28;20951;-68
2023/04/29 10:09:28;;;;;;;57.17;2.40;;;;;;;;;;5072258;28;20801;-69
2023/04/29 10:11:55;;;;;;;56.87;2.00;;;;;;;;;;5072283;28;20458;-69
2023/04/29 10:14:24;;;;;;;57.27;2.50;;;;;;;;;;5072305;28;20518;-69
2023/04/29 10:17:00;;;;;;;56.67;2.03;;;;;;;;;;5072437;28;20447;-69
2023/04/29 10:19:32;;;;;;;56.77;2.00;;;;;;;;;;5071707;28;20471;-69
2023/04/29 10:22:01;;;;;;;56.53;1.97;;;;;;;;;;5072420;28;20455;-69
2023/04/29 10:24:28;;;;;;;57.00;1.90;;;;;;;;;;5072321;28;20457;-70
2023/04/29 10:26:57;;;;;;;57.00;2.00;;;;;;;;;;5072217;28;20826;-71
2023/04/29 10:29:26;;;;;;;56.87;2.40;;;;;;;;;;5071751;28;20475;-71
2023/04/29 10:31:54;;;;;;;57.20;2.00;;;;;;;;;;5071821;28;20967;-71
2023/04/29 10:34:21;;;;;;;56.80;1.70;;;;;;;;;;5072080;28;20483;-70
2023/04/29 10:36:49;;;;;;;57.20;2.00;;;;;;;;;;5072077;28;20451;-70
2023/04/29 10:39:22;;;;;;;56.67;1.80;;;;;;;;;;5071589;28;20502;-71
2023/04/29 10:41:49;;;;;;;56.63;1.87;;;;;;;;;;5072281;28;20447;-70
2023/04/29 10:44:16;;;;;;;57.20;2.20;;;;;;;;;;5071855;28;20449;-71
2023/04/29 10:46:45;;;;;;;56.87;2.10;;;;;;;;;;5071813;28;20454;-70
2023/04/29 10:49:12;;;;;;;57.20;2.40;;;;;;;;;;5071493;28;20471;-70
2023/04/29 10:51:41;;;;;;;56.90;2.00;;;;;;;;;;5071787;28;20451;-70
2023/04/29 10:54:09;;;;;;;57.10;2.20;;;;;;;;;;5071753;28;20486;-70
2023/04/29 10:56:41;;;;;;;56.33;2.07;;;;;;;;;;5071799;28;20874;-71
2023/04/29 10:59:11;;;;;;;57.00;2.10;;;;;;;;;;5071265;28;20475;-70
2023/04/29 11:01:42;;;;;;;57.20;2.10;;;;;;;;;;5072159;28;20447;-70
2023/04/29 11:04:11;;;;;;;56.90;2.13;;;;;;;;;;5071608;28;20966;-71
2023/04/29 11:06:42;;;;;;;56.67;1.90;;;;;;;;;;5071679;28;20967;-70
2023/04/29 11:09:11;;;;;;;56.53;1.90;;;;;;;;;;5071397;28;20464;-70
2023/04/29 11:11:46;;;;;;;56.67;1.80;;;;;;;;;;5071537;28;20447;-70
2023/04/29 11:14:13;;;;;;;56.77;1.90;;;;;;;;;;5071687;28;20509;-70
2023/04/29 11:16:48;;;;;;;57.10;2.20;;;;;;;;;;5071561;28;20470;-70
2023/04/29 11:19:17;;;;;;;56.80;1.83;;;;;;;;;;5071187;28;20470;-69
2023/04/29 11:21:45;;;;;;;56.83;1.80;;;;;;;;;;5071533;28;20447;-70
2023/04/29 11:24:14;;;;;;;56.87;2.37;;;;;;;;;;5071260;28;20849;-69
2023/04/29 11:26:42;;;;;;;56.57;1.70;;;;;;;;;;5071490;28;20877;-70
2023/04/29 11:29:10;;;;;;;56.37;1.70;;;;;;;;;;5074547;28;20990;-70
2023/04/29 11:31:37;;;;;;;56.83;2.20;;;;;;;;;;5075551;28;20447;-70
2023/04/29 11:34:06;;;;;;;57.00;2.00;;;;;;;;;;5075302;28;20479;-69
2023/04/29 11:36:35;;;;;;;56.63;1.70;;;;;;;;;;5075249;28;20486;-69
2023/04/29 11:39:03;;;;;;;56.77;2.03;;;;;;;;;;5074886;28;20447;-69
2023/04/29 11:41:31;;;;;;;57.10;1.93;;;;;;;;;;5075261;28;20950;-70
2023/04/29 11:43:59;;;;;;;57.17;2.30;;;;;;;;;;5075513;28;20504;-70
2023/04/29 11:46:27;;;;;;;56.67;2.40;;;;;;;;;;5075235;28;20473;-70
2023/04/29 11:48:54;;;;;;;57.70;2.10;;;;;;;;;;5074763;28;20451;-69
2023/04/29 11:51:22;;;;;;;56.67;1.77;;;;;;;;;;5075211;28;20447;-69
2023/04/29 11:53:51;;;;;;;57.30;2.07;;;;;;;;;;5074625;28;21003;-70
2023/04/29 11:56:21;;;;;;;57.30;2.83;;;;;;;;;;5075046;28;20827;-70
2023/04/29 11:58:48;;;;;;;57.20;2.40;;;;;;;;;;5074638;28;20455;-70
2023/04/29 12:01:16;;;;;;;56.90;2.20;;;;;;;;;;5075040;28;20449;-70
2023/04/29 12:03:45;;;;;;;56.57;2.00;;;;;;;;;;5075059;28;20449;-70
2023/04/29 12:06:14;;;;;;;57.73;3.80;;;;;;;;;;5074966;28;20459;-70
2023/04/29 12:08:42;;;;;;;57.07;2.47;;;;;;;;;;5074574;28;20451;-70
2023/04/29 12:11:10;;;;;;;61.70;4.60;;;;;;;;;;5074724;28;20471;-69
2023/04/29 12:13:37;;;;;;;57.17;3.20;;;;;;;;;;5074582;28;20482;-70
2023/04/29 12:16:05;;;;;;;58.90;4.73;;;;;;;;;;5074487;28;20963;-70
2023/04/29 12:18:33;;;;;;;60.77;5.73;;;;;;;;;;5074477;28;20439;-69
2023/04/29 12:21:00;;;;;;;60.43;5.73;;;;;;;;;;5074509;28;20479;-70
2023/04/29 12:23:27;;;;;;;57.30;2.20;;;;;;;;;;5074524;28;20869;-70
2023/04/29 12:25:55;;;;;;;56.97;2.37;;;;;;;;;;5074503;28;20445;-69
2023/04/29 12:28:24;;;;;;;56.97;2.30;;;;;;;;;;5074286;28;20530;-69
2023/04/29 12:30:52;;;;;;;56.60;2.17;;;;;;;;;;5074226;28;20555;-70
2023/04/29 12:33:20;;;;;;;56.87;2.07;;;;;;;;;;5074310;28;20455;-70
2023/04/29 12:35:48;;;;;;;57.17;2.73;;;;;;;;;;5074268;28;20936;-70
2023/04/29 12:38:17;;;;;;;57.20;2.43;;;;;;;;;;5073855;28;20443;-70
2023/04/29 12:40:45;;;;;;;56.93;2.30;;;;;;;;;;5072767;28;20859;-71
2023/04/29 12:43:12;;;;;;;57.17;2.80;;;;;;;;;;5074435;28;20444;-70
2023/04/29 12:45:41;;;;;;;59.97;3.27;;;;;;;;;;5073920;28;21006;-70
2023/04/29 12:48:08;;;;;;;56.50;1.80;;;;;;;;;;5074093;28;20899;-70
2023/04/29 12:50:37;;;;;;;56.97;2.50;;;;;;;;;;5073599;28;20475;-70
2023/04/29 12:53:05;;;;;;;57.10;2.27;;;;;;;;;;5073914;28;20447;-70
2023/04/29 12:55:34;;;;;;;58.27;2.77;;;;;;;;;;5073629;28;20494;-70
2023/04/29 12:58:01;;;;;;;57.03;2.07;;;;;;;;;;5073975;28;20455;-70
2023/04/29 13:00:28;;;;;;;56.80;2.00;;;;;;;;;;5073577;28;20470;-70
2023/04/29 13:02:56;;;;;;;57.03;2.27;;;;;;;;;;5073997;28;21073;-70
2023/04/29 13:05:24;;;;;;;57.27;2.10;;;;;;;;;;5073695;28;20443;-70
2023/04/29 13:07:51;;;;;;;56.83;2.23;;;;;;;;;;5073643;28;20861;-70
2023/04/29 13:10:18;;;;;;;56.87;2.03;;;;;;;;;;5073005;28;20472;-69
2023/04/29 13:12:46;;;;;;;57.27;3.03;;;;;;;;;;5073367;28;20503;-70
2023/04/29 13:15:13;;;;;;;56.87;1.93;;;;;;;;;;5073352;28;20527;-70
2023/04/29 13:17:40;;;;;;;56.67;1.90;;;;;;;;;;5073506;28;20498;-69
2023/04/29 13:20:10;;;;;;;57.27;2.07;;;;;;;;;;5072938;28;20478;-70
2023/04/29 13:22:37;;;;;;;57.90;2.50;;;;;;;;;;5073189;28;20447;-70
2023/04/29 13:25:05;;;;;;;57.07;2.10;;;;;;;;;;5073183;28;20542;-69
2023/04/29 13:27:32;;;;;;;57.17;2.50;;;;;;;;;;5073287;28;20456;-69
2023/04/29 13:29:59;;;;;;;57.30;2.30;;;;;;;;;;5072828;28;20474;-69
2023/04/29 13:32:26;;;;;;;57.23;2.40;;;;;;;;;;5072889;28;20451;-69
2023/04/29 13:34:55;;;;;;;58.27;3.13;;;;;;;;;;5073003;28;20518;-69
2023/04/29 13:37:23;;;;;;;57.30;3.10;;;;;;;;;;5072831;28;20477;-69
2023/04/29 13:39:50;;;;;;;57.13;2.60;;;;;;;;;;5072706;28;20471;-69
2023/04/29 13:42:17;;;;;;;57.97;2.43;;;;;;;;;;5073136;28;20447;-69
2023/04/29 13:44:45;;;;;;;57.40;2.77;;;;;;;;;;5072756;28;20444;-69
2023/04/29 13:47:12;;;;;;;57.43;2.87;;;;;;;;;;5073014;28;20838;-69
2023/04/29 13:49:39;;;;;;;58.37;3.90;;;;;;;;;;5072455;28;20481;-70
2023/04/29 13:52:07;;;;;;;57.13;2.40;;;;;;;;;;5072268;28;20458;-69
2023/04/29 13:54:35;;;;;;;57.60;2.60;;;;;;;;;;5072812;28;20510;-69
2023/04/29 13:57:04;;;;;;;58.97;2.90;;;;;;;;;;5072755;28;20797;-69
2023/04/29 13:59:31;;;;;;;57.30;3.03;;;;;;;;;;5072024;28;20482;-70
2023/04/29 14:01:58;;;;;;;57.90;3.03;;;;;;;;;;5072555;28;20454;-70
2023/04/29 14:04:25;;;;;;;58.60;2.57;;;;;;;;;;5072400;28;20846;-70
2023/04/29 14:06:53;;;;;;;57.60;3.17;;;;;;;;;;5072401;28;20533;-70
2023/04/29 14:09:20;;;;;;;57.07;2.20;;;;;;;;;;5072236;28;20934;-70
2023/04/29 14:11:49;;;;;;;58.37;4.30;;;;;;;;;;5072384;28;20454;-69
2023/04/29 14:14:16;;;;;;;56.90;2.50;;;;;;;;;;5072187;28;20479;-70
2023/04/29 14:16:43;;;;;;;57.27;2.67;;;;;;;;;;5072470;28;20447;-70
2023/04/29 14:19:10;;;;;;;57.30;3.67;;;;;;;;;;5072079;28;20472;-70
2023/04/29 14:21:37;;;;;;;57.60;3.00;;;;;;;;;;5071542;28;20455;-70
2023/04/29 14:24:05;;;;;;;57.07;2.37;;;;;;;;;;5072252;28;20465;-70
2023/04/29 14:26:32;;;;;;;57.37;3.27;;;;;;;;;;5072297;28;20542;-70
2023/04/29 14:29:01;;;;;;;56.67;2.90;;;;;;;;;;5071853;28;20453;-70
2023/04/29 14:31:29;;;;;;;56.50;2.63;;;;;;;;;;5072025;28;20764;-70
2023/04/29 14:33:57;;;;;;;56.43;2.83;;;;;;;;;;5072217;28;20448;-70